CYSM

Details ICAO CYSM (YSM)
Name FORT SMITH
Region Canada
Timezone America/Yellowknife (UTC-6.0)
Plans Departing 3
Arriving 8
Stats Elevation 671 ft / 205 m (AMSL)
Location 60.022810° -111.959170°
Runways 2
Magnetic Variation 14.635° E
Sunrise 2018-05-27 10:26:03 UTC / 2018-05-27 04:26:03 Local
Sunset 2018-05-28 04:26:53 UTC / 2018-05-27 22:26:53 Local
Advertisement - Login to hide

Runways

ID Width Length Bearing (true) Bearing (mag) Surface Threshold Offset Overrun Length
02 100 ft / 30 m 1,796 ft / 547 m 40.51° 25.87° Dirt 0 ft / 0 m 0 ft / 0 m
11 200 ft / 61 m 5,993 ft / 1,827 m 131.26° 116.62° Asphalt 0 ft / 0 m 0 ft / 0 m
20 100 ft / 30 m 1,796 ft / 547 m 220.51° 205.87° Dirt 0 ft / 0 m 0 ft / 0 m
29 200 ft / 61 m 5,993 ft / 1,827 m 311.28° 296.64° Asphalt 0 ft / 0 m 0 ft / 0 m

Map

Weather


0- 5 10 15 20 25 30 35+ Temperature / ° C

Clouds and Precipitation
Forecast for 2018-05-27 12:00 UTC. Updated an hour ago

Ground ~20,000 ft ~40,000 ft Winds

METAR

CYSM 271200Z 17003KT 12SM FEW100 SCT220 04/03 A2977 RMK AC2CI2 SLP091

TAF

TAF CYSM 271138Z 2712/2724 20005KT 6SM BR FEW100 TEMPO 2712/2714 1/2SM FG FM271400 18005KT P6SM FEW040 FEW100 FM272000 20008KT P6SM -SHRA BKN040 BKN100 RMK NXT FCST BY 271800Z

Frequencies

Unicom 122.20 MHz AIRPORT RDO
Approach 123.55 MHz YELOWKNIFE RDO
Warning: Do not use this data for real-world aviation or navigation. No guarantee of current accuracy is given.